EGNR/CEG METAR and TAF weather

Enter ICAO airport designator
Station Type Date Time Source
EGNR METAR 2019/04/21 17:50 UTC NOAA

EGNR 211750Z 16008KT CAVOK 21/07 Q1014


Station Type Date Time Source
EGNR Decoded METAR 2019/04/21 17:50 UTC NOAA

Hawarden, United Kingdom (EGNR) 53-10N 002-59W 0M
Apr 21, 2019 - 01:50 PM EDT / 2019.04.21 1750 UTC
Wind: from the SSE (160 degrees) at 9 MPH (8 KT):0
Visibility: greater than 7 mile(s):0
Temperature: 69 F (21 C)
Dew Point: 44 F (7 C)
Relative Humidity: 40%
Pressure (altimeter): 29.94 in. Hg (1014 hPa)
ob: EGNR 211750Z 16008KT CAVOK 21/07 Q1014
cycle: 18

Station Type Date Time Source
EGNR TAF 2016/01/23 12:00 UTC NOAA

TAF EGNR 231059Z 2312/2319 15009KT 9999 FEW020
BECMG 2316/2319 BKN014
TEMPO 2317/2319 6000 RA BKN008

Example: see airport list